Nearby METAR Reports

 

EBAW - Antwerp/Deurne, Belgium
Distance from station: ZZO 9km
Ververst: 01/10/2022 06:50
Meestal bewolkt
Meestal bewolkt
 Wind van ZW
Wind: ZW 20 km/h
Temperatuur: 13°C
Dauwpunt: 11°C
Vochtigheid: 88%
Barometer: 1001 hPa
Clouds: Meestal bewolkt
Visibility: 10 km
Cloud details: Gedeeltelijk bewolkt 244 m
Meestal bewolkt 274 m
Meestal bewolkt 335 m
2022/10/01 04:50 EBAW 010450Z AUTO 22011KT 9999 // SCT008/// BKN009/// BKN011/// 13/11 Q1001
EHWO - Woensdrecht Rnla, Netherlands
Distance from station: NNW 20km
Ververst: 01/10/2022 06:55
Meestal bewolkt
Meestal bewolkt
 Wind van ZW
Wind: ZW 17 km/h
Temperatuur: 13°C
Dauwpunt: 12°C
Vochtigheid: 94%
Barometer: 1001 hPa
Clouds: Meestal bewolkt
Visibility: 10 km
Cloud details: Few Clouds 183 m
Gedeeltelijk bewolkt 244 m
Meestal bewolkt 274 m
2022/10/01 04:55 EHWO 010455Z AUTO 23009KT 9999 FEW006 SCT008 BKN009 13/12 Q1001 GRN
 
EBBR - Brussels Nationa, Belgium
Distance from station: Z 43km
Ververst: 01/10/2022 06:50
Meestal bewolkt
Meestal bewolkt
 Wind van ZW
Wind: ZW 26 km/h
Temperatuur: 13°C
Dauwpunt: 11°C
Vochtigheid: 88%
Barometer: 1002 hPa
Clouds: Meestal bewolkt
Visibility: 10 km
Cloud details: Meestal bewolkt 366 m
Meestal bewolkt 975 m
2022/10/01 04:50 EBBR 010450Z 22014KT 9999 BKN012 BKN032 13/11 Q1002 BECMG SCT020
EHGR - Gilze-Rijen Rnla, Netherlands
Distance from station: NO 47km
Ververst: 01/10/2022 06:55
Zwaar bewolkt
Zwaar bewolkt
 Wind van ZZW
Wind: ZZW 17 km/h
Temperatuur: 13°C
Dauwpunt: 12°C
Vochtigheid: 94%
Barometer: 1000 hPa
Clouds: Zwaar bewolkt
Visibility: 10 km
Cloud details: Gedeeltelijk bewolkt 213 m
Meestal bewolkt 244 m
Zwaar bewolkt 274 m
2022/10/01 04:55 EHGR 010455Z AUTO 21009KT 170V250 9999 SCT007 BKN008 OVC009 13/12 Q1000 GRN
 
EBDT - Schaffen, Belgium
Distance from station: OZO 54km
Ververst: 01/10/2022 06:55
Meestal bewolkt
Meestal bewolkt
 Wind van ZZW
Wind: ZZW 22 km/h, Windvlaag: 41 km/h
Temperatuur: 12°C
Dauwpunt: 11°C
Vochtigheid: 94%
Barometer: 1002 hPa
Clouds: Meestal bewolkt
Visibility: 10 km
Cloud details: Meestal bewolkt 335 m
2022/10/01 04:55 EBDT 010455Z AUTO 20012G22KT 9999 BKN011/// 12/11 Q1002 GRN
EHFS - Vlissingen, Netherlands
Distance from station: WNW 60km
Ververst: 01/10/2022 06:55
Few Clouds
Few Clouds
 Wind van ZW
Wind: ZW 28 km/h
Temperatuur: 15°C
Dauwpunt: 14°C
Vochtigheid: 94%
Barometer: 1000 hPa
Clouds: Few Clouds
Visibility: 10 km
Cloud details: Few Clouds 579 m
2022/10/01 04:55 EHFS 010455Z AUTO 23015KT 210V280 9999 FEW019/// 15/14 Q1000
 
EBBE - Beauvechain (baf, Belgium
Distance from station: ZZO 64km
Ververst: 01/10/2022 06:55
Meestal bewolkt
Meestal bewolkt
 Wind van ZZW
Wind: ZZW 26 km/h
Temperatuur: 12°C
Dauwpunt: 11°C
Vochtigheid: 94%
Barometer: 1003 hPa
Clouds: Meestal bewolkt
Visibility: 10 km
Cloud details: Few Clouds 183 m
Gedeeltelijk bewolkt 244 m
Meestal bewolkt 366 m
2022/10/01 04:55 EBBE 010455Z AUTO 21014KT 9999 FEW006/// SCT008/// BKN012/// 12/11 Q1003 GRN
EHEH - Eindhoven Rnlafb, Netherlands
Distance from station: ONO 69km
Ververst: 01/10/2022 07:10
Zwaar bewolkt
Zwaar bewolkt
 Wind van ZZW
Wind: ZZW 26 km/h
Temperatuur: 12°C
Dauwpunt: 12°C
Vochtigheid: 100%
Barometer: 1001 hPa
Clouds: Zwaar bewolkt
Visibility: 10 km
Cloud details: Gedeeltelijk bewolkt 213 m
Zwaar bewolkt 244 m
2022/10/01 05:10 EHEH 010510Z AUTO 21014KT 9999 SCT007 OVC008 12/12 Q1001 GRN TEMPO 21015G25KT SCT007 BKN008 OVC009
 
EBBL - Kleine-Brogel(Ba, Belgium
Distance from station: O 74km
Ververst: 01/10/2022 06:55
Zwaar bewolkt
Zwaar bewolkt
 Wind van ZW
Wind: ZW 24 km/h
Temperatuur: 12°C
Dauwpunt: 11°C
Vochtigheid: 94%
Barometer: 1002 hPa
Clouds: Zwaar bewolkt
Visibility: 10 km
Cloud details: Zwaar bewolkt 244 m
2022/10/01 04:55 EBBL 010455Z AUTO 22013KT 9999 OVC008/// 12/11 Q1002 GRN
EHRD - Rotterdam Airpor, Netherlands
Distance from station: N 75km
Ververst: 01/10/2022 06:55
Meestal bewolkt
Meestal bewolkt
 Wind van ZW
Wind: ZW 17 km/h
Temperatuur: 13°C
Dauwpunt: 12°C
Vochtigheid: 94%
Barometer: 999 hPa
Clouds: Meestal bewolkt
Visibility: 10 km
Cloud details: Few Clouds 640 m
Gedeeltelijk bewolkt 914 m
Meestal bewolkt 1128 m
2022/10/01 04:55 EHRD 010455Z AUTO 23009KT 9999 FEW021 SCT030 BKN037 13/12 Q0999 NOSIG
 
EHSC - Goeree Le Sea, Netherlands
Distance from station: NW 89km
Ververst: 01/10/2022 06:55

 Wind van W
Wind: W 39 km/h
Temperatuur: 17°C
Dauwpunt: 13°C
Vochtigheid: 77%
Barometer: 1000 hPa
Visibility: 10 km
2022/10/01 04:55 EHSC 010455Z AUTO 28021KT 9999 ///////// 17/13 Q1000 W18/H18
EBCI - Charleroi/Gossel, Belgium
Distance from station: Z 90km
Ververst: 01/10/2022 06:50
Lichte regen, Meestal bewolkt
Lichte regen, Meestal bewolkt
 Wind van ZZW
Wind: ZZW 26 km/h
Temperatuur: 11°C
Dauwpunt: 11°C
Vochtigheid: 100%
Barometer: 1004 hPa
Overzicht: Lichte regen
Clouds: Meestal bewolkt
Visibility: 10 km
Cloud details: Gedeeltelijk bewolkt 183 m
Meestal bewolkt 213 m
2022/10/01 04:50 EBCI 010450Z 20014KT 9999 -RA SCT006 BKN007 11/11 Q1004 TEMPO 4000 -RADZ BKN004
 
EBCV - Chievres Ab, Belgium
Distance from station: ZZW 90km
Ververst: 01/10/2022 06:55
Light drizzle, Zwaar bewolkt
Light drizzle, Zwaar bewolkt
 Wind van ZW
Wind: ZW 26 km/h
Temperatuur: 14°C
Dauwpunt: 13°C
Vochtigheid: 94%
Barometer: 1003 hPa
Overzicht: Light Drizzle
Clouds: Zwaar bewolkt
Visibility: 10 km
Cloud details: Zwaar bewolkt 244 m
2022/10/01 04:55 EBCV 010455Z AUTO 22014KT 9999 -DZ OVC008/// 14/13 Q1003 GRN
EHVK - Volkel Rnlafb, Netherlands
Distance from station: ONO 97km
Ververst: 01/10/2022 06:55
Zwaar bewolkt
Zwaar bewolkt
 Wind van ZW
Wind: ZW 28 km/h
Temperatuur: 12°C
Dauwpunt: 11°C
Vochtigheid: 94%
Barometer: 1000 hPa
Clouds: Zwaar bewolkt
Visibility: 10 km
Cloud details: Meestal bewolkt 274 m
Zwaar bewolkt 305 m
2022/10/01 04:55 EHVK 010455Z AUTO 22015KT 190V250 9999 BKN009 OVC010 12/11 Q1000 GRN
 
EBLG - Bierset/Liege (c, Belgium
Distance from station: ZO 102km
Ververst: 01/10/2022 06:50
Meestal bewolkt
Meestal bewolkt
 Wind van ZZW
Wind: ZZW 31 km/h
Temperatuur: 11°C
Dauwpunt: 9°C
Vochtigheid: 88%
Barometer: 1004 hPa
Clouds: Meestal bewolkt
Visibility: 10 km
Cloud details: Few Clouds 305 m
Meestal bewolkt 457 m
Meestal bewolkt 610 m
2022/10/01 04:50 EBLG 010450Z 20017KT 9999 FEW010 BKN015 BKN020 11/09 Q1004 TEMPO 4000 -RA BKN010
EHBK - Zuid-Limburg/Bee, Netherlands
Distance from station: OZO 102km
Ververst: 01/10/2022 06:55
Zwaar bewolkt
Zwaar bewolkt
 Wind van ZZW
Wind: ZZW 37 km/h
Temperatuur: 11°C
Dauwpunt: 10°C
Vochtigheid: 94%
Barometer: 1003 hPa
Clouds: Zwaar bewolkt
Visibility: 10 km
Cloud details: Few Clouds 244 m
Gedeeltelijk bewolkt 427 m
Zwaar bewolkt 488 m
2022/10/01 04:55 EHBK 010455Z AUTO 20020KT 9999 FEW008 SCT014 OVC016 11/10 Q1003 REDZ BECMG 6000 DZRA SCT008 BKN014
 
EBOS - Oostende Airport, Belgium
Distance from station: W 108km
Ververst: 01/10/2022 06:50
Meestal bewolkt
Meestal bewolkt
 Wind van W
Wind: W 28 km/h
Temperatuur: 15°C
Dauwpunt: 13°C
Vochtigheid: 88%
Barometer: 1002 hPa
Clouds: Meestal bewolkt
Visibility: 10 km
Cloud details: Meestal bewolkt 488 m
2022/10/01 04:50 EBOS 010450Z 27015KT 9999 BKN016 15/13 Q1002 NOSIG
EHSA - Euro Platform, Netherlands
Distance from station: NW 112km
Ververst: 01/10/2022 06:55

 Wind van W
Wind: W 43 km/h
Temperatuur: 16°C
Dauwpunt: 13°C
Vochtigheid: 83%
Barometer: 1000 hPa
Visibility: 10 km
2022/10/01 04:55 EHSA 010455Z AUTO 26023KT 9999 ///////// 16/13 Q1000 W18/H21
 
EHAM - Amsterdam/Schiph, Netherlands
Distance from station: NNO 118km
Ververst: 01/10/2022 06:55
Few Clouds
Few Clouds
 Wind van ZW
Wind: ZW 19 km/h
Temperatuur: 13°C
Dauwpunt: 12°C
Vochtigheid: 94%
Barometer: 999 hPa
Clouds: Few Clouds
Visibility: 10 km
Cloud details: Few Clouds 518 m
2022/10/01 04:55 EHAM 010455Z 22010KT 9999 FEW017 13/12 Q0999 NOSIG
ETNG - Geilenkirchen(Na, Germany
Distance from station: OZO 118km
Ververst: 30/09/2022 18:50
NOT Current
Gedeeltelijk bewolkt
Gedeeltelijk bewolkt
 Wind van ZW
Wind: ZW 9 km/h
Temperatuur: 16°C
Dauwpunt: 7°C
Vochtigheid: 55%
Barometer: 1009 hPa
Clouds: Gedeeltelijk bewolkt
Visibility: 10 km
Cloud details: Few Clouds 914 m
Gedeeltelijk bewolkt 7620 m
2022/09/30 16:50 ETNG 301650Z 22005KT 9999 FEW030 SCT250 16/07 Q1009 NOSIG